createdAt,value
2023-02-24T00:00:32.487Z,61.30
2023-02-24T00:03:15.352Z,61.02
2023-02-24T00:05:44.915Z,60.52
2023-02-24T00:08:13.371Z,59.98
2023-02-24T00:10:42.325Z,59.69
2023-02-24T00:13:12.372Z,59.42
2023-02-24T00:15:41.039Z,59.16
2023-02-24T00:18:09.756Z,60.36
2023-02-24T00:20:38.188Z,62.44
2023-02-24T00:23:06.704Z,64.70
2023-02-24T00:25:35.155Z,63.97
2023-02-24T00:28:03.671Z,62.57
2023-02-24T00:30:33.310Z,61.78
2023-02-24T00:33:02.969Z,61.25
2023-02-24T00:35:32.714Z,60.77
2023-02-24T00:38:01.456Z,60.22
2023-02-24T00:40:30.965Z,59.71
2023-02-24T00:43:01.244Z,58.98
2023-02-24T00:45:31.189Z,60.02
2023-02-24T00:47:59.737Z,62.19
2023-02-24T00:50:28.246Z,64.56
2023-02-24T00:52:57.507Z,64.10
2023-02-24T00:55:36.546Z,63.20
2023-02-24T00:58:07.573Z,62.31
2023-02-24T01:00:37.203Z,61.54
2023-02-24T01:03:06.803Z,60.92
2023-02-24T01:05:36.999Z,60.31
2023-02-24T01:08:05.759Z,59.76
2023-02-24T01:10:34.794Z,59.07
2023-02-24T01:13:03.339Z,59.56
2023-02-24T01:15:31.880Z,60.86
2023-02-24T01:18:00.311Z,63.25
2023-02-24T01:20:30.661Z,64.05
2023-02-24T01:22:59.298Z,63.23
2023-02-24T01:25:28.090Z,62.79
2023-02-24T01:27:56.592Z,61.96
2023-02-24T01:30:25.030Z,61.27
2023-02-24T01:32:53.790Z,60.87
2023-02-24T01:35:22.446Z,60.45
2023-02-24T01:37:50.885Z,59.99
2023-02-24T01:40:21.732Z,59.30
2023-02-24T01:42:50.528Z,59.40
2023-02-24T01:45:23.042Z,61.10
2023-02-24T01:47:53.272Z,63.34
2023-02-24T01:50:24.003Z,64.81
2023-02-24T01:53:01.269Z,63.73
2023-02-24T01:55:52.407Z,62.64
2023-02-24T01:58:26.885Z,61.87
2023-02-24T02:00:58.120Z,61.08
2023-02-24T02:03:34.119Z,60.23
2023-02-24T02:06:09.685Z,59.62
2023-02-24T02:08:41.260Z,58.91
2023-02-24T02:11:20.880Z,60.73
2023-02-24T02:13:52.678Z,62.78
2023-02-24T02:16:43.997Z,64.33
2023-02-24T02:19:28.260Z,64.22
2023-02-24T02:22:17.558Z,62.94
2023-02-24T02:24:53.268Z,62.14
2023-02-24T02:27:45.466Z,61.51
2023-02-24T02:30:14.654Z,61.15
2023-02-24T02:33:05.460Z,60.73
2023-02-24T02:35:49.137Z,60.04
2023-02-24T02:38:26.493Z,59.00
2023-02-24T02:41:29.133Z,59.69
2023-02-24T02:44:08.046Z,62.54
2023-02-24T02:46:48.206Z,63.97
2023-02-24T02:49:31.042Z,63.04
2023-02-24T02:52:07.666Z,62.13
2023-02-24T02:54:41.253Z,61.12
2023-02-24T02:57:18.899Z,61.14
2023-02-24T02:59:57.283Z,60.52
2023-02-24T03:02:30.097Z,60.47
2023-02-24T03:05:02.444Z,59.32
2023-02-24T03:07:37.866Z,59.49
2023-02-24T03:10:17.876Z,61.54
2023-02-24T03:12:51.978Z,63.92
2023-02-24T03:15:24.327Z,63.81
2023-02-24T03:17:58.557Z,62.73
2023-02-24T03:20:33.141Z,62.12
2023-02-24T03:23:11.598Z,61.64
2023-02-24T03:25:48.743Z,61.17
2023-02-24T03:28:36.075Z,60.40
2023-02-24T03:31:18.633Z,60.03
2023-02-24T03:34:00.876Z,59.48
2023-02-24T03:36:30.187Z,58.87
2023-02-24T03:39:02.236Z,61.00
2023-02-24T03:41:41.294Z,62.30
2023-02-24T03:44:11.620Z,64.51
2023-02-24T03:46:42.905Z,63.88
2023-02-24T03:49:16.754Z,62.94
2023-02-24T03:52:12.813Z,61.91
2023-02-24T03:55:03.334Z,61.14
2023-02-24T03:57:37.638Z,60.34
2023-02-24T04:00:26.712Z,59.61
2023-02-24T04:03:06.880Z,59.05
2023-02-24T04:05:47.969Z,60.50
2023-02-24T04:08:17.783Z,61.97
2023-02-24T04:11:05.697Z,64.34
2023-02-24T04:13:46.173Z,64.31
2023-02-24T04:16:29.175Z,63.13
2023-02-24T04:19:04.308Z,61.92
2023-02-24T04:21:36.797Z,61.03
2023-02-24T04:24:11.897Z,60.58
2023-02-24T04:26:43.528Z,59.84
2023-02-24T04:29:24.221Z,59.52
2023-02-24T04:32:06.162Z,58.73
2023-02-24T04:34:35.509Z,60.23
2023-02-24T04:37:04.207Z,62.17
2023-02-24T04:39:33.797Z,63.85
2023-02-24T04:42:02.410Z,63.77
2023-02-24T04:44:33.051Z,62.63
2023-02-24T04:47:01.616Z,61.89
2023-02-24T04:49:30.164Z,61.32
2023-02-24T04:51:58.690Z,60.96
2023-02-24T04:54:28.158Z,60.44
2023-02-24T04:56:58.373Z,59.62
2023-02-24T04:59:28.257Z,59.27
2023-02-24T05:02:01.683Z,61.13
2023-02-24T05:04:31.824Z,63.10
2023-02-24T05:07:00.853Z,63.08
2023-02-24T05:09:30.392Z,62.22
2023-02-24T05:12:00.514Z,61.60
2023-02-24T05:14:29.276Z,60.96
2023-02-24T05:17:00.642Z,60.55
2023-02-24T05:19:47.912Z,60.07
2023-02-24T05:22:17.753Z,59.16
2023-02-24T05:24:48.198Z,60.17
2023-02-24T05:27:17.737Z,61.99
2023-02-24T05:29:46.351Z,64.27
2023-02-24T05:32:17.024Z,64.49
2023-02-24T05:34:45.696Z,63.44
2023-02-24T05:37:16.925Z,62.23
2023-02-24T05:39:45.376Z,61.40
2023-02-24T05:42:13.889Z,60.86
2023-02-24T05:44:42.319Z,60.18
2023-02-24T05:47:11.134Z,59.99
2023-02-24T05:49:39.716Z,59.69
2023-02-24T05:52:09.843Z,59.56
2023-02-24T05:54:42.829Z,58.77
2023-02-24T05:57:14.388Z,60.24
2023-02-24T05:59:44.873Z,62.32
2023-02-24T06:02:16.073Z,64.25
2023-02-24T06:04:51.614Z,63.90
2023-02-24T06:07:25.207Z,62.61
2023-02-24T06:09:59.001Z,61.83
2023-02-24T06:12:36.277Z,61.15
2023-02-24T06:15:08.114Z,60.83
2023-02-24T06:17:37.039Z,60.29
2023-02-24T06:20:14.233Z,59.12
2023-02-24T06:22:42.755Z,60.03
2023-02-24T06:25:14.482Z,62.21
2023-02-24T06:27:43.413Z,63.55
2023-02-24T06:30:12.822Z,62.52
2023-02-24T06:32:41.360Z,61.59
2023-02-24T06:35:12.946Z,60.64
2023-02-24T06:37:41.578Z,60.17
2023-02-24T06:40:16.108Z,59.67
2023-02-24T06:42:49.691Z,59.13
2023-02-24T06:45:18.260Z,60.41
2023-02-24T06:47:49.240Z,62.58
2023-02-24T06:50:20.393Z,64.29
2023-02-24T06:52:50.253Z,63.55
2023-02-24T06:55:27.709Z,62.41
2023-02-24T06:57:58.986Z,61.60
2023-02-24T07:00:39.101Z,60.69
2023-02-24T07:03:16.879Z,60.25
2023-02-24T07:05:50.884Z,59.67
2023-02-24T07:08:27.699Z,59.37
2023-02-24T07:11:00.255Z,62.13
2023-02-24T07:13:30.227Z,62.92
2023-02-24T07:16:12.077Z,61.55
2023-02-24T07:18:41.046Z,60.54
2023-02-24T07:21:16.726Z,59.97
2023-02-24T07:23:49.917Z,59.16
2023-02-24T07:26:22.658Z,60.21
2023-02-24T07:28:55.290Z,62.36
2023-02-24T07:31:26.479Z,63.79
2023-02-24T07:34:02.280Z,62.80
2023-02-24T07:36:35.281Z,62.03
2023-02-24T07:39:04.102Z,61.22
2023-02-24T07:41:32.858Z,60.24
2023-02-24T07:44:03.674Z,59.67
2023-02-24T07:46:32.844Z,59.36
2023-02-24T07:49:03.336Z,61.08
2023-02-24T07:51:31.837Z,63.14
2023-02-24T07:54:01.773Z,64.07
2023-02-24T07:56:33.138Z,63.44
2023-02-24T07:59:08.178Z,62.21
2023-02-24T08:01:41.040Z,61.20
2023-02-24T08:04:13.488Z,60.03
2023-02-24T08:06:47.951Z,59.33
2023-02-24T08:09:20.822Z,59.89
2023-02-24T08:11:52.615Z,61.67
2023-02-24T08:14:44.775Z,63.12
2023-02-24T08:17:19.109Z,62.94
2023-02-24T08:20:01.368Z,61.39
2023-02-24T08:22:37.583Z,60.35
2023-02-24T08:25:06.947Z,60.02
2023-02-24T08:27:43.211Z,58.87
2023-02-24T08:30:25.319Z,59.69
2023-02-24T08:32:57.490Z,61.11
2023-02-24T08:35:36.298Z,62.85
2023-02-24T08:38:16.741Z,62.74
2023-02-24T08:40:50.693Z,61.77
2023-02-24T08:43:33.365Z,59.94
2023-02-24T08:46:13.751Z,59.40
2023-02-24T08:48:48.352Z,60.89
2023-02-24T08:51:29.092Z,63.06
2023-02-24T08:54:00.602Z,61.70
2023-02-24T08:56:35.239Z,60.54
2023-02-24T08:59:06.313Z,59.33
2023-02-24T09:01:40.384Z,59.72
2023-02-24T09:04:11.624Z,62.08
2023-02-24T09:06:46.150Z,63.16
2023-02-24T09:09:18.408Z,61.95
2023-02-24T09:11:57.432Z,60.14
2023-02-24T09:14:36.713Z,58.73
2023-02-24T09:17:11.810Z,60.18
2023-02-24T09:19:48.288Z,61.46
2023-02-24T09:22:31.771Z,63.33
2023-02-24T09:25:24.411Z,62.84
2023-02-24T09:28:17.757Z,60.87
2023-02-24T09:30:55.485Z,59.11
2023-02-24T09:33:39.660Z,60.58
2023-02-24T09:36:13.130Z,62.91
2023-02-24T09:39:01.479Z,63.10
2023-02-24T09:42:06.275Z,61.91
2023-02-24T09:44:39.474Z,59.54
2023-02-24T09:48:02.099Z,58.24
2023-02-24T09:51:02.202Z,60.20
2023-02-24T09:53:49.625Z,61.52
2023-02-24T09:56:44.825Z,61.84
2023-02-24T09:59:27.658Z,60.31
2023-02-24T10:02:02.554Z,58.92
2023-02-24T10:04:54.185Z,59.30
2023-02-24T10:07:38.678Z,60.73
2023-02-24T10:10:28.495Z,61.75
2023-02-24T10:13:30.604Z,62.50
2023-02-24T10:16:07.383Z,62.12
2023-02-24T10:19:15.543Z,59.76
2023-02-24T10:22:08.848Z,59.04
2023-02-24T10:24:49.669Z,59.57
2023-02-24T10:27:25.360Z,60.24
2023-02-24T10:30:27.994Z,61.76
2023-02-24T10:33:00.405Z,62.44
2023-02-24T10:35:37.044Z,58.92
2023-02-24T10:38:05.695Z,58.53
2023-02-24T10:40:48.438Z,58.88
2023-02-24T10:43:20.281Z,60.42
2023-02-24T10:45:48.789Z,61.70
2023-02-24T10:48:40.743Z,62.28
2023-02-24T10:51:30.582Z,61.90
2023-02-24T10:54:22.615Z,60.52
2023-02-24T10:57:01.058Z,56.87
2023-02-24T10:59:33.224Z,58.70
2023-02-24T11:02:24.971Z,60.28
2023-02-24T11:05:04.819Z,59.80
2023-02-24T11:07:44.277Z,61.29
2023-02-24T11:10:15.162Z,61.98
2023-02-24T11:13:10.029Z,62.11
2023-02-24T11:16:11.300Z,59.07
2023-02-24T11:18:46.317Z,59.05
2023-02-24T11:21:16.652Z,60.23
2023-02-24T11:23:51.699Z,61.25
2023-02-24T11:26:41.960Z,61.38
2023-02-24T11:29:17.788Z,62.41
2023-02-24T11:31:56.293Z,62.44
2023-02-24T11:35:06.506Z,59.75
2023-02-24T11:37:43.746Z,59.78
2023-02-24T11:40:12.174Z,60.91
2023-02-24T11:42:56.523Z,61.62
2023-02-24T11:45:38.102Z,62.85
2023-02-24T11:48:18.217Z,60.52
2023-02-24T11:51:02.262Z,58.67
2023-02-24T11:53:55.168Z,59.42
2023-02-24T11:56:45.424Z,59.79
2023-02-24T11:59:31.231Z,60.44
2023-02-24T12:02:31.289Z,61.46
2023-02-24T12:05:19.144Z,62.12
2023-02-24T12:07:55.205Z,60.22
2023-02-24T12:10:28.048Z,58.69
2023-02-24T12:13:12.649Z,58.38
2023-02-24T12:15:46.987Z,59.07
2023-02-24T12:18:24.349Z,61.02
2023-02-24T12:21:30.773Z,61.04
2023-02-24T12:24:01.575Z,61.99
2023-02-24T12:26:42.993Z,62.23
2023-02-24T12:29:50.799Z,62.66
2023-02-24T12:32:50.235Z,59.28
2023-02-24T12:35:44.872Z,59.36
2023-02-24T12:38:31.502Z,59.78
2023-02-24T12:41:29.425Z,60.13
2023-02-24T12:44:18.187Z,59.96
2023-02-24T12:46:55.706Z,59.86
2023-02-24T12:49:51.138Z,60.61
2023-02-24T12:52:42.660Z,59.74
2023-02-24T12:55:21.902Z,60.83
2023-02-24T12:57:59.503Z,61.37
2023-02-24T13:00:43.890Z,60.34
2023-02-24T13:03:54.205Z,60.94
2023-02-24T13:06:23.149Z,59.75
2023-02-24T13:08:54.723Z,59.73
2023-02-24T13:11:31.396Z,59.39
2023-02-24T13:14:23.124Z,58.71
2023-02-24T13:16:51.983Z,58.44
2023-02-24T13:19:32.056Z,58.02
2023-02-24T13:22:12.731Z,57.58
2023-02-24T13:25:07.927Z,57.26
2023-02-24T13:27:39.211Z,57.89
2023-02-24T13:30:18.590Z,58.30
2023-02-24T13:32:59.827Z,57.59
2023-02-24T13:35:31.061Z,57.72
2023-02-24T13:38:10.680Z,58.18
2023-02-24T13:40:39.196Z,58.01
2023-02-24T13:43:24.881Z,56.63
2023-02-24T13:46:00.535Z,57.37
2023-02-24T13:48:48.486Z,56.91
2023-02-24T13:51:54.636Z,57.14
2023-02-24T13:54:26.398Z,56.89
2023-02-24T13:57:20.652Z,57.48
2023-02-24T14:00:12.272Z,58.07
2023-02-24T14:02:44.506Z,58.05
2023-02-24T14:05:30.411Z,58.64
2023-02-24T14:08:00.134Z,59.30
2023-02-24T14:10:31.464Z,59.43
2023-02-24T14:13:08.351Z,58.13
2023-02-24T14:15:42.363Z,58.50
2023-02-24T14:18:21.303Z,59.20
2023-02-24T14:20:49.688Z,59.42
2023-02-24T14:23:34.785Z,59.16
2023-02-24T14:26:12.292Z,59.87
2023-02-24T14:28:42.257Z,60.31
2023-02-24T14:31:14.432Z,60.54
2023-02-24T14:33:46.042Z,60.57
2023-02-24T14:36:18.870Z,60.50
2023-02-24T14:38:47.349Z,60.70
2023-02-24T14:41:24.533Z,61.32
2023-02-24T14:43:53.800Z,61.82
2023-02-24T14:46:23.278Z,61.88
2023-02-24T14:48:55.517Z,62.15
2023-02-24T14:51:27.053Z,62.24
2023-02-24T14:53:59.660Z,61.21
2023-02-24T14:56:31.762Z,58.43
2023-02-24T14:59:12.688Z,57.02
2023-02-24T15:01:46.909Z,57.93
2023-02-24T15:04:37.252Z,58.97
2023-02-24T15:07:17.552Z,59.65
2023-02-24T15:09:49.624Z,59.93
2023-02-24T15:12:45.959Z,60.46
2023-02-24T15:15:36.090Z,61.49
2023-02-24T15:18:11.516Z,61.84
2023-02-24T15:20:41.234Z,62.13
2023-02-24T15:23:31.689Z,62.78
2023-02-24T15:26:00.903Z,62.27
2023-02-24T15:28:35.104Z,60.72
2023-02-24T15:31:11.549Z,58.23
2023-02-24T15:33:45.553Z,57.56
2023-02-24T15:36:24.974Z,58.33
2023-02-24T15:38:58.368Z,59.43
2023-02-24T15:41:37.661Z,60.23
2023-02-24T15:44:06.102Z,60.87
2023-02-24T15:46:37.076Z,61.32
2023-02-24T15:49:06.090Z,62.14
2023-02-24T15:51:42.967Z,62.71
2023-02-24T15:54:15.334Z,61.45
2023-02-24T15:56:45.041Z,59.27
2023-02-24T15:59:18.159Z,58.36
2023-02-24T16:01:46.643Z,59.36
2023-02-24T16:04:15.117Z,60.53
2023-02-24T16:06:54.250Z,61.56
2023-02-24T16:09:39.808Z,62.46
2023-02-24T16:12:16.630Z,61.93
2023-02-24T16:14:45.481Z,60.87
2023-02-24T16:17:35.862Z,58.36
2023-02-24T16:20:09.334Z,58.63
2023-02-24T16:22:38.015Z,59.91
2023-02-24T16:25:07.735Z,61.11
2023-02-24T16:27:36.656Z,62.14
2023-02-24T16:30:07.021Z,62.85
2023-02-24T16:32:35.722Z,61.64
2023-02-24T16:35:04.657Z,60.02
2023-02-24T16:37:33.182Z,58.76
2023-02-24T16:40:01.776Z,57.47
2023-02-24T16:42:30.571Z,58.87
2023-02-24T16:44:59.079Z,60.00
2023-02-24T16:47:27.528Z,60.95
2023-02-24T16:49:58.112Z,61.90
2023-02-24T16:52:26.649Z,63.07
2023-02-24T16:54:55.319Z,62.27
2023-02-24T16:57:25.872Z,60.31
2023-02-24T16:59:55.021Z,58.38
2023-02-24T17:02:26.432Z,58.96
2023-02-24T17:04:55.507Z,60.44
2023-02-24T17:07:24.377Z,61.53
2023-02-24T17:09:52.847Z,62.76
2023-02-24T17:12:22.230Z,62.72
2023-02-24T17:14:50.869Z,60.96
2023-02-24T17:17:19.629Z,59.34
2023-02-24T17:19:48.127Z,58.57
2023-02-24T17:22:17.931Z,59.93
2023-02-24T17:24:46.423Z,61.20
2023-02-24T17:27:14.877Z,62.57
2023-02-24T17:29:43.327Z,62.91
2023-02-24T17:32:12.042Z,61.12
2023-02-24T17:34:41.123Z,59.28
2023-02-24T17:37:09.510Z,59.91
2023-02-24T17:39:37.999Z,61.19
2023-02-24T17:42:06.768Z,62.71
2023-02-24T17:44:35.551Z,63.15
2023-02-24T17:47:04.264Z,61.60
2023-02-24T17:49:33.011Z,59.71
2023-02-24T17:52:01.605Z,58.75
2023-02-24T17:54:30.105Z,59.95
2023-02-24T17:56:58.684Z,61.71
2023-02-24T17:59:27.312Z,62.65
2023-02-24T18:01:55.785Z,61.55
2023-02-24T18:04:24.258Z,60.74
2023-02-24T18:06:52.692Z,59.06
2023-02-24T18:09:21.223Z,59.30
2023-02-24T18:11:50.621Z,61.14
2023-02-24T18:14:19.163Z,62.20
2023-02-24T18:16:47.625Z,63.34
2023-02-24T18:19:16.219Z,62.31
2023-02-24T18:21:44.868Z,60.63
2023-02-24T18:24:13.607Z,59.64
2023-02-24T18:26:42.192Z,58.49
2023-02-24T18:29:10.966Z,59.55
2023-02-24T18:31:39.709Z,61.59
2023-02-24T18:34:08.580Z,62.70
2023-02-24T18:36:37.218Z,62.62
2023-02-24T18:39:06.237Z,61.46
2023-02-24T18:41:34.734Z,60.01
2023-02-24T18:44:03.307Z,58.81
2023-02-24T18:46:31.925Z,58.52
2023-02-24T18:49:00.481Z,59.99
2023-02-24T18:51:29.380Z,61.94
2023-02-24T18:53:59.221Z,63.36
2023-02-24T18:56:29.468Z,62.15
2023-02-24T18:58:59.936Z,60.50
2023-02-24T19:01:34.057Z,59.58
2023-02-24T19:04:03.359Z,58.41
2023-02-24T19:06:33.305Z,58.53
2023-02-24T19:09:11.251Z,60.43
2023-02-24T19:11:41.952Z,62.09
2023-02-24T19:14:13.719Z,63.01
2023-02-24T19:16:42.229Z,62.25
2023-02-24T19:19:14.165Z,60.50
2023-02-24T19:21:46.454Z,59.25
2023-02-24T19:24:16.906Z,58.68
2023-02-24T19:26:47.703Z,60.15
2023-02-24T19:29:17.551Z,62.17
2023-02-24T19:31:46.412Z,63.19
2023-02-24T19:34:15.646Z,62.24
2023-02-24T19:36:44.064Z,60.34
2023-02-24T19:39:15.474Z,59.10
2023-02-24T19:41:44.824Z,59.29
2023-02-24T19:44:14.380Z,60.74
2023-02-24T19:46:43.407Z,62.88
2023-02-24T19:49:11.853Z,63.22
2023-02-24T19:51:40.420Z,62.46
2023-02-24T19:54:12.545Z,60.96
2023-02-24T19:56:41.108Z,59.02
2023-02-24T19:59:11.417Z,59.63
2023-02-24T20:01:40.105Z,61.58
2023-02-24T20:04:09.636Z,63.16
2023-02-24T20:06:41.231Z,63.14
2023-02-24T20:09:16.915Z,62.11
2023-02-24T20:11:46.385Z,60.64
2023-02-24T20:14:17.551Z,59.39
2023-02-24T20:16:47.205Z,59.05
2023-02-24T20:19:17.674Z,61.12
2023-02-24T20:21:46.356Z,63.34
2023-02-24T20:24:16.965Z,63.13
2023-02-24T20:26:48.257Z,61.66
2023-02-24T20:29:19.170Z,60.15
2023-02-24T20:31:48.621Z,59.86
2023-02-24T20:34:18.037Z,59.43
2023-02-24T20:36:46.542Z,60.94
2023-02-24T20:39:15.313Z,62.34
2023-02-24T20:41:44.541Z,64.36
2023-02-24T20:44:13.330Z,63.89
2023-02-24T20:46:42.263Z,63.02
2023-02-24T20:49:15.227Z,61.57
2023-02-24T20:51:44.282Z,59.89
2023-02-24T20:54:14.602Z,60.06
2023-02-24T20:56:45.654Z,61.70
2023-02-24T20:59:20.514Z,63.71
2023-02-24T21:01:50.328Z,63.97
2023-02-24T21:04:21.360Z,62.65
2023-02-24T21:06:52.136Z,61.05
2023-02-24T21:09:20.682Z,59.97
2023-02-24T21:11:49.416Z,59.45
2023-02-24T21:14:18.544Z,60.26
2023-02-24T21:16:47.256Z,61.89
2023-02-24T21:19:18.033Z,64.01
2023-02-24T21:21:46.671Z,63.86
2023-02-24T21:24:15.200Z,62.57
2023-02-24T21:26:43.710Z,61.42
2023-02-24T21:29:12.163Z,60.30
2023-02-24T21:31:40.751Z,59.64
2023-02-24T21:34:12.339Z,59.23
2023-02-24T21:36:40.977Z,60.81
2023-02-24T21:39:14.836Z,62.88
2023-02-24T21:41:43.807Z,63.56
2023-02-24T21:44:15.073Z,62.73
2023-02-24T21:46:43.773Z,61.58
2023-02-24T21:49:15.611Z,60.46
2023-02-24T21:51:49.377Z,59.69
2023-02-24T21:54:18.200Z,59.11
2023-02-24T21:56:46.696Z,60.85
2023-02-24T21:59:15.215Z,62.85
2023-02-24T22:01:45.677Z,63.58
2023-02-24T22:04:17.173Z,62.87
2023-02-24T22:06:45.610Z,61.42
2023-02-24T22:09:19.860Z,60.87
2023-02-24T22:11:50.050Z,60.01
2023-02-24T22:14:19.165Z,59.28
2023-02-24T22:16:47.713Z,59.91
2023-02-24T22:19:16.394Z,62.15
2023-02-24T22:21:45.322Z,63.52
2023-02-24T22:24:16.014Z,62.71
2023-02-24T22:26:45.421Z,61.37
2023-02-24T22:29:13.989Z,59.90
2023-02-24T22:31:44.251Z,59.66
2023-02-24T22:34:14.863Z,60.99
2023-02-24T22:36:43.382Z,63.09
2023-02-24T22:39:16.756Z,63.66
2023-02-24T22:41:47.030Z,62.63
2023-02-24T22:44:19.425Z,61.14
2023-02-24T22:46:48.666Z,59.77
2023-02-24T22:49:17.468Z,59.68
2023-02-24T22:51:46.018Z,61.75
2023-02-24T22:54:14.901Z,63.50
2023-02-24T22:56:44.187Z,63.52
2023-02-24T22:59:13.895Z,62.18
2023-02-24T23:01:43.089Z,60.83
2023-02-24T23:04:16.856Z,60.00
2023-02-24T23:06:45.454Z,59.27
2023-02-24T23:09:19.950Z,60.25
2023-02-24T23:11:48.672Z,62.68
2023-02-24T23:14:18.002Z,63.66
2023-02-24T23:16:53.864Z,63.06
2023-02-24T23:19:23.257Z,61.23
2023-02-24T23:21:54.261Z,60.29
2023-02-24T23:24:22.873Z,60.04
2023-02-24T23:26:58.303Z,58.71
2023-02-24T23:29:27.951Z,60.10
2023-02-24T23:31:57.648Z,61.76
2023-02-24T23:34:26.563Z,63.55
2023-02-24T23:36:55.177Z,63.50
2023-02-24T23:39:24.158Z,62.60
2023-02-24T23:41:57.166Z,61.59
2023-02-24T23:44:26.542Z,60.74
2023-02-24T23:46:58.504Z,60.10
2023-02-24T23:49:36.280Z,58.78
2023-02-24T23:52:08.339Z,60.05
2023-02-24T23:54:36.840Z,62.53
2023-02-24T23:57:05.304Z,63.68
2023-02-24T23:59:33.805Z,62.74
